Minerva Anna — SVNP — position and weather

sailwx.info

Track history (hours):
 
Tides and Currents Weather Stations Pressure Air Temp Water Temp Dewpoint Dewpoint Depression Visibility Wind Speed Wind Dir Waves Ship Positions

Minerva Anna

Last reported at 2017-Jun-18 15:31 UTC. Time now 2017-Jun-24 05:20 UTC.
Position N 58°25' E 003°38'.

Length 183 m; draft 12.2 m.

Type: Ship. MMSI: 240729000.

Date/timePositionNaut miles runAvg speedWind from/ knotsBaromVisibWave heightAir tempDewpointWater temp
2017-Jun-18 15:31N 58°25' E 003°38'411.3
2017-Jun-18 15:09N 58°23' E 003°45'511.0
2017-Jun-18 14:40N 58°21' E 003°55'411.2
2017-Jun-18 14:20N 58°19' E 004°01'1612.0
2017-Jun-18 12:58N 58°12' E 004°28'4912.6
2017-Jun-18 09:05N 57°50' E 005°51'112.0
2017-Jun-18 09:00N 57°49' E 005°53'612.0
2017-Jun-18 08:30N 57°46' E 006°02'712.3
2017-Jun-18 07:58N 57°43' E 006°13'612.4
2017-Jun-18 07:30N 57°41' E 006°23'812.5
2017-Jun-18 06:53N 57°37' E 006°36'512.1
2017-Jun-18 06:29N 57°35' E 006°44'3912.1
2017-Jun-18 03:18N 57°34' E 007°56'411.7
2017-Jun-18 03:00N 57°34' E 008°02'611.7
2017-Jun-18 02:31N 57°35' E 008°13'611.5
2017-Jun-18 02:00N 57°36' E 008°23'611.5
2017-Jun-18 01:29N 57°37' E 008°34'611.7
2017-Jun-18 01:00N 57°38' E 008°44'612.0
2017-Jun-18 00:30N 57°40' E 008°56'611.6
2017-Jun-17 23:59N 57°41' E 009°07'611.5
2017-Jun-17 23:29N 57°42' E 009°17'711.1
2017-Jun-17 22:53N 57°43' E 009°30'411.3
2017-Jun-17 22:30N 57°43' E 009°38'611.2
2017-Jun-17 22:01N 57°45' E 009°48'611.1
2017-Jun-17 21:27N 57°45' E 009°59'611.1
2017-Jun-17 20:57N 57°47' E 010°10'511.2
2017-Jun-17 20:28N 57°48' E 010°19'510.7
2017-Jun-17 19:59N 57°49' E 010°29'510.9
2017-Jun-17 19:31N 57°48' E 010°38'510.7
2017-Jun-17 19:00N 57°47' E 010°48'611.2
2017-Jun-17 18:30N 57°41' E 010°47'4 8.2
2017-Jun-17 18:00N 57°39' E 010°41'0 0.3
2017-Jun-17 17:11N 57°39' E 010°41'0 0.0
2017-Jun-17 16:59N 57°39' E 010°41'0 0.0
2017-Jun-17 15:47N 57°39' E 010°41'0 0.0
2017-Jun-17 15:17N 57°39' E 010°41'0 0.0
2017-Jun-17 14:56N 57°39' E 010°41'0 0.0
2017-Jun-17 14:26N 57°39' E 010°41'0 0.0
2017-Jun-17 12:53N 57°39' E 010°41'0 0.1
2017-Jun-17 12:29N 57°39' E 010°41'0 0.0
2017-Jun-17 11:56N 57°39' E 010°41'0 0.0
2017-Jun-17 11:08N 57°39' E 010°41'0 0.0
2017-Jun-17 11:00N 57°39' E 010°41'0 0.0
2017-Jun-17 10:28N 57°39' E 010°41'0 0.0
2017-Jun-17 10:00N 57°39' E 010°41'0 0.0
2017-Jun-17 09:30N 57°39' E 010°41'0 0.1
2017-Jun-17 09:00N 57°39' E 010°41'0 0.8
2017-Jun-17 08:29N 57°39' E 010°42'2 4.0
2017-Jun-17 08:00N 57°39' E 010°45'611.3
2017-Jun-17 07:30N 57°36' E 010°54'612.1
2017-Jun-17 07:00N 57°34' E 011°04'612.1
2017-Jun-17 06:29N 57°31' E 011°15'511.3
2017-Jun-17 06:01N 57°30' E 011°25'611.5
2017-Jun-17 05:30N 57°24' E 011°28'612.3
2017-Jun-17 05:00N 57°18' E 011°32'612.3
2017-Jun-17 04:30N 57°12' E 011°36'612.4
2017-Jun-17 03:59N 57°07' E 011°40'711.9
2017-Jun-17 03:24N 56°60' E 011°44'511.4
2017-Jun-17 03:00N 56°55' E 011°47'711.2
2017-Jun-17 02:24N 56°49' E 011°51'510.9
2017-Jun-17 01:55N 56°44' E 011°54'3411.5
2017-Jun-16 22:56N 56°15' E 011°21'55 9.6
2017-Jun-16 17:09N 55°21' E 011°02'2 8.6
2017-Jun-16 16:59N 55°19' E 011°03'5 9.8
2017-Jun-16 16:30N 55°15' E 011°05'4 8.5
2017-Jun-16 16:00N 55°11' E 011°03'5 9.4
2017-Jun-16 15:28N 55°06' E 010°59'510.4
2017-Jun-16 15:01N 55°01' E 010°59'510.7
2017-Jun-16 14:31N 54°57' E 010°54'1111.1
2017-Jun-16 13:31N 54°46' E 010°49'510.7
2017-Jun-16 13:01N 54°41' E 010°47'5 9.8
2017-Jun-16 12:30N 54°38' E 010°54'5 9.9
2017-Jun-16 12:00N 54°36' E 011°02'5 9.9
2017-Jun-16 11:30N 54°36' E 011°10'510.6
2017-Jun-16 11:00N 54°34' E 011°18'510.6
2017-Jun-16 10:31N 54°31' E 011°26'510.2
2017-Jun-16 10:00N 54°29' E 011°35'710.2
2017-Jun-16 09:16N 54°27' E 011°47'310.4
2017-Jun-16 09:00N 54°27' E 011°51'510.5
2017-Jun-16 08:31N 54°26' E 012°00'7 9.9
2017-Jun-16 07:47N 54°28' E 012°12'311.1
2017-Jun-16 07:30N 54°31' E 012°14'510.0
2017-Jun-16 07:00N 54°36' E 012°17'2010.6
2017-Jun-16 05:10N 54°47' E 012°45'211.0
2017-Jun-16 04:58N 54°48' E 012°48'810.5
2017-Jun-16 04:10N 54°51' E 013°02'210.9
2017-Jun-16 03:59N 54°52' E 013°05'1310.9
2017-Jun-16 02:49N 54°56' E 013°26'411.1
2017-Jun-16 02:30N 54°57' E 013°31'511.0
2017-Jun-16 02:00N 54°59' E 013°40'611.1
2017-Jun-16 01:30N 55°01' E 013°49'611.4
2017-Jun-16 01:01N 55°03' E 013°59'611.2
2017-Jun-16 00:30N 55°06' E 014°07'511.1
2017-Jun-16 00:01N 55°11' E 014°12'611.4
2017-Jun-15 23:30N 55°15' E 014°19'611.5
2017-Jun-15 23:01N 55°19' E 014°26'611.6
2017-Jun-15 22:31N 55°24' E 014°32'611.5
2017-Jun-15 22:00N 55°28' E 014°39'611.7
2017-Jun-15 21:31N 55°30' E 014°49'611.8
2017-Jun-15 21:01N 55°33' E 014°58'611.8
2017-Jun-15 20:30N 55°36' E 015°07'611.5
2017-Jun-15 20:01N 55°38' E 015°17'611.4
2017-Jun-15 19:31N 55°39' E 015°27'611.2
2017-Jun-15 19:01N 55°41' E 015°36'611.3
2017-Jun-15 18:30N 55°42' E 015°46'611.4
2017-Jun-15 18:01N 55°44' E 015°56'611.4
2017-Jun-15 17:30N 55°45' E 016°05'611.2
2017-Jun-15 17:00N 55°46' E 016°15'611.2
2017-Jun-15 16:31N 55°48' E 016°25'611.3
2017-Jun-15 16:00N 55°49' E 016°34'611.2
2017-Jun-15 15:29N 55°51' E 016°44'511.1
2017-Jun-15 15:00N 55°52' E 016°54'611.3
2017-Jun-15 14:31N 55°53' E 017°03'1311.3
2017-Jun-15 13:23N 55°57' E 017°25'511.3
2017-Jun-15 12:58N 55°58' E 017°33'711.5
2017-Jun-15 12:24N 56°00' E 017°44'712.0
2017-Jun-15 11:51N 56°04' E 017°54'1412.4
2017-Jun-15 10:43N 56°12' E 018°15'312.3
2017-Jun-15 10:30N 56°13' E 018°19'18212.4
2017-Jun-14 19:51N 58°49' E 021°13'3 9.0
2017-Jun-14 19:30N 58°52' E 021°16'612.6
2017-Jun-14 19:01N 58°57' E 021°22'612.8
2017-Jun-14 18:30N 59°03' E 021°29'714.0
2017-Jun-14 18:00N 59°08' E 021°36'510.3
2017-Jun-14 17:30N 59°12' E 021°44'612.2
2017-Jun-14 17:00N 59°15' E 021°54'612.3
2017-Jun-14 16:31N 59°19' E 022°03'612.5
2017-Jun-14 16:01N 59°23' E 022°13'612.1
2017-Jun-14 15:30N 59°27' E 022°22'612.3
2017-Jun-14 15:00N 59°30' E 022°32'1212.1
2017-Jun-14 14:01N 59°34' E 022°54'612.2
2017-Jun-14 13:30N 59°36' E 023°06'612.3
2017-Jun-14 13:01N 59°37' E 023°18'612.3
2017-Jun-14 12:31N 59°38' E 023°30'612.5
2017-Jun-14 12:00N 59°37' E 023°42'612.6
2017-Jun-14 11:31N 59°35' E 023°54'612.5
2017-Jun-14 11:00N 59°34' E 024°06'612.2
2017-Jun-14 10:30N 59°32' E 024°18'611.5
2017-Jun-14 10:00N 59°31' E 024°29'1 2.1
2017-Jun-14 09:30N 59°31' E 024°31'0 0.0
2017-Jun-14 09:00N 59°31' E 024°31'0 0.0
2017-Jun-14 08:30N 59°31' E 024°31'0 0.0
2017-Jun-14 08:01N 59°31' E 024°31'0 0.0
2017-Jun-14 07:30N 59°31' E 024°31'0 0.0
2017-Jun-14 07:00N 59°31' E 024°31'0 0.2
2017-Jun-14 06:30N 59°31' E 024°31'1 2.1
2017-Jun-14 06:00N 59°31' E 024°29'4 8.7
2017-Jun-14 05:30N 59°35' E 024°24'510.0
2017-Jun-14 05:00N 59°39' E 024°27'611.2
2017-Jun-14 04:30N 59°38' E 024°38'510.8
2017-Jun-14 04:00N 59°37' E 024°48'510.9
2017-Jun-14 03:30N 59°33' E 024°56'4 6.9
2017-Jun-14 03:00N 59°30' E 024°57'0 0.1
2017-Jun-14 02:30N 59°30' E 024°57'0 0.0
2017-Jun-14 02:00N 59°30' E 024°57'0 0.0
2017-Jun-14 01:30N 59°30' E 024°57'0 0.0
2017-Jun-14 01:00N 59°30' E 024°57'0 0.0
2017-Jun-14 00:30N 59°30' E 024°57'0 0.0
2017-Jun-14 00:00N 59°30' E 024°57'0 0.0
2017-Jun-13 23:30N 59°30' E 024°57'0 0.0
2017-Jun-13 23:00N 59°30' E 024°57'0 0.0
2017-Jun-13 22:30N 59°30' E 024°57'0 0.0
2017-Jun-13 22:00N 59°30' E 024°57'0 0.0
2017-Jun-13 21:30N 59°30' E 024°57'0 0.0
2017-Jun-13 21:00N 59°30' E 024°57'0 0.0
2017-Jun-13 20:30N 59°30' E 024°57'0 0.0
2017-Jun-13 20:00N 59°30' E 024°57'0 0.0
2017-Jun-13 19:30N 59°30' E 024°57'0 0.0
2017-Jun-13 18:59N 59°30' E 024°57'0 0.0
2017-Jun-13 18:30N 59°30' E 024°57'0 0.0
2017-Jun-13 17:58N 59°30' E 024°57'0 0.0
2017-Jun-13 17:30N 59°30' E 024°57'0 0.0
2017-Jun-13 17:00N 59°30' E 024°57'0 0.0
2017-Jun-13 16:30N 59°30' E 024°57'0 0.0
2017-Jun-13 16:00N 59°30' E 024°57'0 0.0
2017-Jun-13 15:30N 59°30' E 024°57'0 0.0
2017-Jun-13 15:00N 59°30' E 024°57'0 0.0
2017-Jun-13 14:30N 59°30' E 024°57'0 0.0
2017-Jun-13 13:30N 59°30' E 024°57'0 0.0
2017-Jun-13 13:00N 59°30' E 024°57'0 0.0
2017-Jun-13 12:30N 59°30' E 024°57'0 0.0
2017-Jun-13 12:00N 59°30' E 024°57'0 0.0
2017-Jun-13 11:30N 59°30' E 024°57'0 0.0
2017-Jun-13 11:00N 59°30' E 024°57'0 0.0
2017-Jun-13 10:27N 59°30' E 024°57'0 0.0
2017-Jun-13 10:00N 59°30' E 024°57'0 0.0
2017-Jun-13 09:30N 59°30' E 024°57'0 0.0
2017-Jun-13 09:00N 59°30' E 024°57'0 0.0
2017-Jun-13 08:30N 59°30' E 024°57'0 0.0
2017-Jun-13 08:00N 59°30' E 024°57'0 0.0
2017-Jun-13 07:24N 59°30' E 024°57'0 0.0
2017-Jun-13 07:00N 59°30' E 024°57'0 0.0
2017-Jun-13 06:30N 59°30' E 024°57'0 0.0
2017-Jun-13 06:00N 59°30' E 024°57'0 0.0
2017-Jun-13 05:30N 59°30' E 024°57'0 0.0
2017-Jun-13 05:00N 59°30' E 024°57'0 0.0
2017-Jun-13 04:30N 59°30' E 024°57'0 0.0
2017-Jun-13 04:00N 59°30' E 024°57'0 0.0
2017-Jun-13 03:30N 59°30' E 024°57'0 0.0
2017-Jun-13 03:00N 59°30' E 024°57'0 0.0
2017-Jun-13 02:30N 59°30' E 024°57'0 0.0
2017-Jun-13 02:00N 59°30' E 024°57'0 0.0
2017-Jun-13 01:30N 59°30' E 024°57'0 0.0
2017-Jun-13 01:00N 59°30' E 024°57'0 0.0
2017-Jun-13 00:27N 59°30' E 024°57'0 0.0
2017-Jun-13 00:00N 59°30' E 024°57'0 0.0
2017-Jun-12 23:30N 59°30' E 024°57'0 0.0
2017-Jun-12 23:00N 59°30' E 024°57'0 0.0
2017-Jun-12 22:30N 59°30' E 024°57'0 0.0
2017-Jun-12 22:00N 59°30' E 024°57'0 0.0
2017-Jun-12 21:30N 59°30' E 024°57'0 0.0
2017-Jun-12 21:00N 59°30' E 024°57'0 0.0
2017-Jun-12 20:30N 59°30' E 024°57'0 0.0
2017-Jun-12 19:55N 59°30' E 024°57'0 0.0
2017-Jun-12 19:30N 59°30' E 024°57'0 0.0
2017-Jun-12 19:00N 59°30' E 024°57'0 0.0
2017-Jun-12 18:28N 59°30' E 024°57'0 0.0
2017-Jun-12 18:00N 59°30' E 024°57'0 0.0
2017-Jun-12 17:30N 59°30' E 024°57'0 0.0
2017-Jun-12 17:00N 59°30' E 024°57'0 0.0
2017-Jun-12 16:30N 59°30' E 024°57'0 0.0
2017-Jun-12 16:00N 59°30' E 024°57'0 0.0
2017-Jun-12 15:30N 59°30' E 024°57'0 0.0
2017-Jun-12 15:00N 59°30' E 024°57'0 0.0
2017-Jun-12 14:30N 59°30' E 024°57'0 0.0
2017-Jun-12 13:30N 59°30' E 024°57'0 0.0
2017-Jun-12 13:00N 59°30' E 024°57'0 0.0
2017-Jun-12 12:30N 59°30' E 024°57'0 0.0
2017-Jun-12 12:00N 59°30' E 024°57'0 0.0
2017-Jun-12 11:30N 59°30' E 024°57'0 0.0
2017-Jun-12 11:00N 59°30' E 024°57'0 0.0
2017-Jun-12 10:30N 59°30' E 024°57'0 0.0
2017-Jun-12 10:00N 59°30' E 024°57'0 0.0
2017-Jun-12 09:30N 59°30' E 024°57'0 0.0
2017-Jun-12 09:00N 59°30' E 024°57'0 0.0
2017-Jun-12 08:30N 59°30' E 024°57'0 0.0
2017-Jun-12 08:00N 59°30' E 024°57'0 0.0
2017-Jun-12 07:30N 59°30' E 024°57'0 0.0
2017-Jun-12 07:00N 59°30' E 024°57'0 0.0
2017-Jun-12 06:31N 59°30' E 024°57'1 1.9
2017-Jun-12 06:00N 59°31' E 024°58'4 9.0
2017-Jun-12 05:31N 59°35' E 024°55'611.3
2017-Jun-12 05:00N 59°39' E 024°47'611.7
2017-Jun-12 04:30N 59°42' E 024°37'510.8
2017-Jun-12 04:00N 59°44' E 024°27'612.0
2017-Jun-12 03:31N 59°42' E 024°16'612.2
2017-Jun-12 03:00N 59°41' E 024°04'612.4
2017-Jun-12 02:31N 59°39' E 023°53'612.4
2017-Jun-12 02:01N 59°37' E 023°41'612.2
2017-Jun-12 01:31N 59°35' E 023°30'612.2
2017-Jun-12 01:00N 59°33' E 023°18'612.2
2017-Jun-12 00:31N 59°31' E 023°07'612.4
2017-Jun-12 00:01N 59°29' E 022°55'612.6
2017-Jun-11 23:31N 59°27' E 022°43'612.3
2017-Jun-11 23:01N 59°24' E 022°33'612.3
2017-Jun-11 22:31N 59°20' E 022°23'612.5
2017-Jun-11 22:01N 59°16' E 022°14'612.5
2017-Jun-11 21:31N 59°13' E 022°04'612.4
2017-Jun-11 21:00N 59°09' E 021°54'612.3
2017-Jun-11 20:30N 59°05' E 021°45'714.3
2017-Jun-11 20:00N 58°59' E 021°37'510.1
2017-Jun-11 19:31N 58°55' E 021°32'612.5
2017-Jun-11 19:01N 58°49' E 021°25'713.4
2017-Jun-11 18:30N 58°44' E 021°18'714.0
2017-Jun-11 18:00N 58°38' E 021°11'510.3
2017-Jun-11 17:30N 58°34' E 021°05'612.6
2017-Jun-11 17:01N 58°29' E 020°58'612.8
2017-Jun-11 16:30N 58°23' E 020°52'612.7
2017-Jun-11 16:00N 58°18' E 020°45'612.5
2017-Jun-11 15:30N 58°13' E 020°38'612.4
2017-Jun-11 14:59N 58°07' E 020°31'12811.9
2017-Jun-11 04:17N 56°15' E 018°39'412.0
2017-Jun-11 03:58N 56°13' E 018°33'812.1
2017-Jun-11 03:19N 56°09' E 018°21'412.1
2017-Jun-11 03:00N 56°07' E 018°15'612.0
2017-Jun-11 02:30N 56°04' E 018°06'611.9
2017-Jun-11 02:00N 56°01' E 017°57'611.9
2017-Jun-11 01:30N 55°57' E 017°48'612.0
2017-Jun-11 01:00N 55°55' E 017°39'5712.4
2017-Jun-10 20:22N 55°42' E 015°60'512.5
2017-Jun-10 20:00N 55°41' E 015°52'612.6
2017-Jun-10 19:30N 55°39' E 015°41'612.6
2017-Jun-10 19:00N 55°37' E 015°30'612.4
2017-Jun-10 18:31N 55°35' E 015°20'612.4
2017-Jun-10 18:01N 55°32' E 015°10'612.6
2017-Jun-10 17:31N 55°29' E 015°00'612.6
2017-Jun-10 17:01N 55°27' E 014°50'612.4
2017-Jun-10 16:30N 55°24' E 014°40'612.1
2017-Jun-10 16:01N 55°19' E 014°33'612.2
2017-Jun-10 15:31N 55°14' E 014°27'612.3
2017-Jun-10 15:01N 55°10' E 014°20'1212.1
2017-Jun-10 14:00N 55°01' E 014°05'612.5
2017-Jun-10 13:31N 54°59' E 013°55'612.5
2017-Jun-10 13:01N 54°57' E 013°45'712.5
2017-Jun-10 12:29N 54°55' E 013°34'612.4
2017-Jun-10 12:00N 54°53' E 013°24'612.2
2017-Jun-10 11:30N 54°51' E 013°14'1212.1
2017-Jun-10 10:31N 54°47' E 012°55'012.3
2017-Jun-10 10:30N 54°47' E 012°54'611.8
2017-Jun-10 10:00N 54°44' E 012°45'712.0
2017-Jun-10 09:27N 54°42' E 012°34'612.7
2017-Jun-10 08:57N 54°38' E 012°25'2011.3
2017-Jun-10 07:10N 54°24' E 011°60'313.2
2017-Jun-10 06:55N 54°24' E 011°54'612.5
2017-Jun-10 06:27N 54°25' E 011°44'613.0
2017-Jun-10 06:00N 54°28' E 011°35'713.1
2017-Jun-10 05:30N 54°31' E 011°25'713.0
2017-Jun-10 05:00N 54°33' E 011°15'612.8
2017-Jun-10 04:30N 54°37' E 011°06'612.8
2017-Jun-10 04:00N 54°40' E 010°56'510.8
2017-Jun-10 03:30N 54°45' E 010°52'611.6
2017-Jun-10 03:00N 54°51' E 010°52'611.1
2017-Jun-10 02:30N 54°56' E 010°55'510.8
2017-Jun-10 02:00N 55°00' E 011°01'611.4
2017-Jun-10 01:30N 55°06' E 011°02'611.3
2017-Jun-10 01:00N 55°11' E 011°04'5 9.0
2017-Jun-10 00:30N 55°16' E 011°04'4 6.9
2017-Jun-10 00:00N 55°17' E 011°09'510.6
2017-Jun-09 23:30N 55°13' E 011°14'1 0.2
2017-Jun-09 20:56N 55°12' E 011°15'0 0.0
2017-Jun-09 17:17N 55°12' E 011°15'  
Track history (hours):
 
Tides and Currents Weather Stations Pressure Air Temp Water Temp Dewpoint Dewpoint Depression Visibility Wind Speed Wind Dir Waves Ship Positions

Minerva Anna

Last reported at 2017-Jun-18 15:31 UTC. Time now 2017-Jun-24 05:20 UTC.
Position N 58°25' E 003°38'.

Length 183 m; draft 12.2 m.

Type: Ship. MMSI: 240729000.

Date/timePositionNaut miles runAvg speedWind from/ knotsBaromVisibWave heightAir tempDewpointWater temp
2017-Jun-18 15:31N 58°25' E 003°38'411.3
2017-Jun-18 15:09N 58°23' E 003°45'511.0
2017-Jun-18 14:40N 58°21' E 003°55'411.2
2017-Jun-18 14:20N 58°19' E 004°01'1612.0
2017-Jun-18 12:58N 58°12' E 004°28'4912.6
2017-Jun-18 09:05N 57°50' E 005°51'112.0
2017-Jun-18 09:00N 57°49' E 005°53'612.0
2017-Jun-18 08:30N 57°46' E 006°02'712.3
2017-Jun-18 07:58N 57°43' E 006°13'612.4
2017-Jun-18 07:30N 57°41' E 006°23'812.5
2017-Jun-18 06:53N 57°37' E 006°36'512.1
2017-Jun-18 06:29N 57°35' E 006°44'3912.1
2017-Jun-18 03:18N 57°34' E 007°56'411.7
2017-Jun-18 03:00N 57°34' E 008°02'611.7
2017-Jun-18 02:31N 57°35' E 008°13'611.5
2017-Jun-18 02:00N 57°36' E 008°23'611.5
2017-Jun-18 01:29N 57°37' E 008°34'611.7
2017-Jun-18 01:00N 57°38' E 008°44'612.0
2017-Jun-18 00:30N 57°40' E 008°56'611.6
2017-Jun-17 23:59N 57°41' E 009°07'611.5
2017-Jun-17 23:29N 57°42' E 009°17'711.1
2017-Jun-17 22:53N 57°43' E 009°30'411.3
2017-Jun-17 22:30N 57°43' E 009°38'611.2
2017-Jun-17 22:01N 57°45' E 009°48'611.1
2017-Jun-17 21:27N 57°45' E 009°59'611.1
2017-Jun-17 20:57N 57°47' E 010°10'511.2
2017-Jun-17 20:28N 57°48' E 010°19'510.7
2017-Jun-17 19:59N 57°49' E 010°29'510.9
2017-Jun-17 19:31N 57°48' E 010°38'510.7
2017-Jun-17 19:00N 57°47' E 010°48'611.2
2017-Jun-17 18:30N 57°41' E 010°47'4 8.2
2017-Jun-17 18:00N 57°39' E 010°41'0 0.3
2017-Jun-17 17:11N 57°39' E 010°41'0 0.0
2017-Jun-17 16:59N 57°39' E 010°41'0 0.0
2017-Jun-17 15:47N 57°39' E 010°41'0 0.0
2017-Jun-17 15:17N 57°39' E 010°41'0 0.0
2017-Jun-17 14:56N 57°39' E 010°41'0 0.0
2017-Jun-17 14:26N 57°39' E 010°41'0 0.0
2017-Jun-17 12:53N 57°39' E 010°41'0 0.1
2017-Jun-17 12:29N 57°39' E 010°41'0 0.0
2017-Jun-17 11:56N 57°39' E 010°41'0 0.0
2017-Jun-17 11:08N 57°39' E 010°41'0 0.0
2017-Jun-17 11:00N 57°39' E 010°41'0 0.0
2017-Jun-17 10:28N 57°39' E 010°41'0 0.0
2017-Jun-17 10:00N 57°39' E 010°41'0 0.0
2017-Jun-17 09:30N 57°39' E 010°41'0 0.1
2017-Jun-17 09:00N 57°39' E 010°41'0 0.8
2017-Jun-17 08:29N 57°39' E 010°42'2 4.0
2017-Jun-17 08:00N 57°39' E 010°45'611.3
2017-Jun-17 07:30N 57°36' E 010°54'612.1
2017-Jun-17 07:00N 57°34' E 011°04'612.1
2017-Jun-17 06:29N 57°31' E 011°15'511.3
2017-Jun-17 06:01N 57°30' E 011°25'611.5
2017-Jun-17 05:30N 57°24' E 011°28'612.3
2017-Jun-17 05:00N 57°18' E 011°32'612.3
2017-Jun-17 04:30N 57°12' E 011°36'612.4
2017-Jun-17 03:59N 57°07' E 011°40'711.9
2017-Jun-17 03:24N 56°60' E 011°44'511.4
2017-Jun-17 03:00N 56°55' E 011°47'711.2
2017-Jun-17 02:24N 56°49' E 011°51'510.9
2017-Jun-17 01:55N 56°44' E 011°54'3411.5
2017-Jun-16 22:56N 56°15' E 011°21'55 9.6
2017-Jun-16 17:09N 55°21' E 011°02'2 8.6
2017-Jun-16 16:59N 55°19' E 011°03'5 9.8
2017-Jun-16 16:30N 55°15' E 011°05'4 8.5
2017-Jun-16 16:00N 55°11' E 011°03'5 9.4
2017-Jun-16 15:28N 55°06' E 010°59'510.4
2017-Jun-16 15:01N 55°01' E 010°59'510.7
2017-Jun-16 14:31N 54°57' E 010°54'1111.1
2017-Jun-16 13:31N 54°46' E 010°49'510.7
2017-Jun-16 13:01N 54°41' E 010°47'5 9.8
2017-Jun-16 12:30N 54°38' E 010°54'5 9.9
2017-Jun-16 12:00N 54°36' E 011°02'5 9.9
2017-Jun-16 11:30N 54°36' E 011°10'510.6
2017-Jun-16 11:00N 54°34' E 011°18'510.6
2017-Jun-16 10:31N 54°31' E 011°26'510.2
2017-Jun-16 10:00N 54°29' E 011°35'710.2
2017-Jun-16 09:16N 54°27' E 011°47'310.4
2017-Jun-16 09:00N 54°27' E 011°51'510.5
2017-Jun-16 08:31N 54°26' E 012°00'7 9.9
2017-Jun-16 07:47N 54°28' E 012°12'311.1
2017-Jun-16 07:30N 54°31' E 012°14'510.0
2017-Jun-16 07:00N 54°36' E 012°17'2010.6
2017-Jun-16 05:10N 54°47' E 012°45'211.0
2017-Jun-16 04:58N 54°48' E 012°48'810.5
2017-Jun-16 04:10N 54°51' E 013°02'210.9
2017-Jun-16 03:59N 54°52' E 013°05'1310.9
2017-Jun-16 02:49N 54°56' E 013°26'411.1
2017-Jun-16 02:30N 54°57' E 013°31'511.0
2017-Jun-16 02:00N 54°59' E 013°40'611.1
2017-Jun-16 01:30N 55°01' E 013°49'611.4
2017-Jun-16 01:01N 55°03' E 013°59'611.2
2017-Jun-16 00:30N 55°06' E 014°07'511.1
2017-Jun-16 00:01N 55°11' E 014°12'611.4
2017-Jun-15 23:30N 55°15' E 014°19'611.5
2017-Jun-15 23:01N 55°19' E 014°26'611.6
2017-Jun-15 22:31N 55°24' E 014°32'611.5
2017-Jun-15 22:00N 55°28' E 014°39'611.7
2017-Jun-15 21:31N 55°30' E 014°49'611.8
2017-Jun-15 21:01N 55°33' E 014°58'611.8
2017-Jun-15 20:30N 55°36' E 015°07'611.5
2017-Jun-15 20:01N 55°38' E 015°17'611.4
2017-Jun-15 19:31N 55°39' E 015°27'611.2
2017-Jun-15 19:01N 55°41' E 015°36'611.3
2017-Jun-15 18:30N 55°42' E 015°46'611.4
2017-Jun-15 18:01N 55°44' E 015°56'611.4
2017-Jun-15 17:30N 55°45' E 016°05'611.2
2017-Jun-15 17:00N 55°46' E 016°15'611.2
2017-Jun-15 16:31N 55°48' E 016°25'611.3
2017-Jun-15 16:00N 55°49' E 016°34'611.2
2017-Jun-15 15:29N 55°51' E 016°44'511.1
2017-Jun-15 15:00N 55°52' E 016°54'611.3
2017-Jun-15 14:31N 55°53' E 017°03'1311.3
2017-Jun-15 13:23N 55°57' E 017°25'511.3
2017-Jun-15 12:58N 55°58' E 017°33'711.5
2017-Jun-15 12:24N 56°00' E 017°44'712.0
2017-Jun-15 11:51N 56°04' E 017°54'1412.4
2017-Jun-15 10:43N 56°12' E 018°15'312.3
2017-Jun-15 10:30N 56°13' E 018°19'18212.4
2017-Jun-14 19:51N 58°49' E 021°13'3 9.0
2017-Jun-14 19:30N 58°52' E 021°16'612.6
2017-Jun-14 19:01N 58°57' E 021°22'612.8
2017-Jun-14 18:30N 59°03' E 021°29'714.0
2017-Jun-14 18:00N 59°08' E 021°36'510.3
2017-Jun-14 17:30N 59°12' E 021°44'612.2
2017-Jun-14 17:00N 59°15' E 021°54'612.3
2017-Jun-14 16:31N 59°19' E 022°03'612.5
2017-Jun-14 16:01N 59°23' E 022°13'612.1
2017-Jun-14 15:30N 59°27' E 022°22'612.3
2017-Jun-14 15:00N 59°30' E 022°32'1212.1
2017-Jun-14 14:01N 59°34' E 022°54'612.2
2017-Jun-14 13:30N 59°36' E 023°06'612.3
2017-Jun-14 13:01N 59°37' E 023°18'612.3
2017-Jun-14 12:31N 59°38' E 023°30'612.5
2017-Jun-14 12:00N 59°37' E 023°42'612.6
2017-Jun-14 11:31N 59°35' E 023°54'612.5
2017-Jun-14 11:00N 59°34' E 024°06'612.2
2017-Jun-14 10:30N 59°32' E 024°18'611.5
2017-Jun-14 10:00N 59°31' E 024°29'1 2.1
2017-Jun-14 09:30N 59°31' E 024°31'0 0.0
2017-Jun-14 09:00N 59°31' E 024°31'0 0.0
2017-Jun-14 08:30N 59°31' E 024°31'0 0.0
2017-Jun-14 08:01N 59°31' E 024°31'0 0.0
2017-Jun-14 07:30N 59°31' E 024°31'0 0.0
2017-Jun-14 07:00N 59°31' E 024°31'0 0.2
2017-Jun-14 06:30N 59°31' E 024°31'1 2.1
2017-Jun-14 06:00N 59°31' E 024°29'4 8.7
2017-Jun-14 05:30N 59°35' E 024°24'510.0
2017-Jun-14 05:00N 59°39' E 024°27'611.2
2017-Jun-14 04:30N 59°38' E 024°38'510.8
2017-Jun-14 04:00N 59°37' E 024°48'510.9
2017-Jun-14 03:30N 59°33' E 024°56'4 6.9
2017-Jun-14 03:00N 59°30' E 024°57'0 0.1
2017-Jun-14 02:30N 59°30' E 024°57'0 0.0
2017-Jun-14 02:00N 59°30' E 024°57'0 0.0
2017-Jun-14 01:30N 59°30' E 024°57'0 0.0
2017-Jun-14 01:00N 59°30' E 024°57'0 0.0
2017-Jun-14 00:30N 59°30' E 024°57'0 0.0
2017-Jun-14 00:00N 59°30' E 024°57'0 0.0
2017-Jun-13 23:30N 59°30' E 024°57'0 0.0
2017-Jun-13 23:00N 59°30' E 024°57'0 0.0
2017-Jun-13 22:30N 59°30' E 024°57'0 0.0
2017-Jun-13 22:00N 59°30' E 024°57'0 0.0
2017-Jun-13 21:30N 59°30' E 024°57'0 0.0
2017-Jun-13 21:00N 59°30' E 024°57'0 0.0
2017-Jun-13 20:30N 59°30' E 024°57'0 0.0
2017-Jun-13 20:00N 59°30' E 024°57'0 0.0
2017-Jun-13 19:30N 59°30' E 024°57'0 0.0
2017-Jun-13 18:59N 59°30' E 024°57'0 0.0
2017-Jun-13 18:30N 59°30' E 024°57'0 0.0
2017-Jun-13 17:58N 59°30' E 024°57'0 0.0
2017-Jun-13 17:30N 59°30' E 024°57'0 0.0
2017-Jun-13 17:00N 59°30' E 024°57'0 0.0
2017-Jun-13 16:30N 59°30' E 024°57'0 0.0
2017-Jun-13 16:00N 59°30' E 024°57'0 0.0
2017-Jun-13 15:30N 59°30' E 024°57'0 0.0
2017-Jun-13 15:00N 59°30' E 024°57'0 0.0
2017-Jun-13 14:30N 59°30' E 024°57'0 0.0
2017-Jun-13 13:30N 59°30' E 024°57'0 0.0
2017-Jun-13 13:00N 59°30' E 024°57'0 0.0
2017-Jun-13 12:30N 59°30' E 024°57'0 0.0
2017-Jun-13 12:00N 59°30' E 024°57'0 0.0
2017-Jun-13 11:30N 59°30' E 024°57'0 0.0
2017-Jun-13 11:00N 59°30' E 024°57'0 0.0
2017-Jun-13 10:27N 59°30' E 024°57'0 0.0
2017-Jun-13 10:00N 59°30' E 024°57'0 0.0
2017-Jun-13 09:30N 59°30' E 024°57'0 0.0
2017-Jun-13 09:00N 59°30' E 024°57'0 0.0
2017-Jun-13 08:30N 59°30' E 024°57'0 0.0
2017-Jun-13 08:00N 59°30' E 024°57'0 0.0
2017-Jun-13 07:24N 59°30' E 024°57'0 0.0
2017-Jun-13 07:00N 59°30' E 024°57'0 0.0
2017-Jun-13 06:30N 59°30' E 024°57'0 0.0
2017-Jun-13 06:00N 59°30' E 024°57'0 0.0
2017-Jun-13 05:30N 59°30' E 024°57'0 0.0
2017-Jun-13 05:00N 59°30' E 024°57'0 0.0
2017-Jun-13 04:30N 59°30' E 024°57'0 0.0
2017-Jun-13 04:00N 59°30' E 024°57'0 0.0
2017-Jun-13 03:30N 59°30' E 024°57'0 0.0
2017-Jun-13 03:00N 59°30' E 024°57'0 0.0
2017-Jun-13 02:30N 59°30' E 024°57'0 0.0
2017-Jun-13 02:00N 59°30' E 024°57'0 0.0
2017-Jun-13 01:30N 59°30' E 024°57'0 0.0
2017-Jun-13 01:00N 59°30' E 024°57'0 0.0
2017-Jun-13 00:27N 59°30' E 024°57'0 0.0
2017-Jun-13 00:00N 59°30' E 024°57'0 0.0
2017-Jun-12 23:30N 59°30' E 024°57'0 0.0
2017-Jun-12 23:00N 59°30' E 024°57'0 0.0
2017-Jun-12 22:30N 59°30' E 024°57'0 0.0
2017-Jun-12 22:00N 59°30' E 024°57'0 0.0
2017-Jun-12 21:30N 59°30' E 024°57'0 0.0
2017-Jun-12 21:00N 59°30' E 024°57'0 0.0
2017-Jun-12 20:30N 59°30' E 024°57'0 0.0
2017-Jun-12 19:55N 59°30' E 024°57'0 0.0
2017-Jun-12 19:30N 59°30' E 024°57'0 0.0
2017-Jun-12 19:00N 59°30' E 024°57'0 0.0
2017-Jun-12 18:28N 59°30' E 024°57'0 0.0
2017-Jun-12 18:00N 59°30' E 024°57'0 0.0
2017-Jun-12 17:30N 59°30' E 024°57'0 0.0
2017-Jun-12 17:00N 59°30' E 024°57'0 0.0
2017-Jun-12 16:30N 59°30' E 024°57'0 0.0
2017-Jun-12 16:00N 59°30' E 024°57'0 0.0
2017-Jun-12 15:30N 59°30' E 024°57'0 0.0
2017-Jun-12 15:00N 59°30' E 024°57'0 0.0
2017-Jun-12 14:30N 59°30' E 024°57'0 0.0
2017-Jun-12 13:30N 59°30' E 024°57'0 0.0
2017-Jun-12 13:00N 59°30' E 024°57'0 0.0
2017-Jun-12 12:30N 59°30' E 024°57'0 0.0
2017-Jun-12 12:00N 59°30' E 024°57'0 0.0
2017-Jun-12 11:30N 59°30' E 024°57'0 0.0
2017-Jun-12 11:00N 59°30' E 024°57'0 0.0
2017-Jun-12 10:30N 59°30' E 024°57'0 0.0
2017-Jun-12 10:00N 59°30' E 024°57'0 0.0
2017-Jun-12 09:30N 59°30' E 024°57'0 0.0
2017-Jun-12 09:00N 59°30' E 024°57'0 0.0
2017-Jun-12 08:30N 59°30' E 024°57'0 0.0
2017-Jun-12 08:00N 59°30' E 024°57'0 0.0
2017-Jun-12 07:30N 59°30' E 024°57'0 0.0
2017-Jun-12 07:00N 59°30' E 024°57'0 0.0
2017-Jun-12 06:31N 59°30' E 024°57'1 1.9
2017-Jun-12 06:00N 59°31' E 024°58'4 9.0
2017-Jun-12 05:31N 59°35' E 024°55'611.3
2017-Jun-12 05:00N 59°39' E 024°47'611.7
2017-Jun-12 04:30N 59°42' E 024°37'510.8
2017-Jun-12 04:00N 59°44' E 024°27'612.0
2017-Jun-12 03:31N 59°42' E 024°16'612.2
2017-Jun-12 03:00N 59°41' E 024°04'612.4
2017-Jun-12 02:31N 59°39' E 023°53'612.4
2017-Jun-12 02:01N 59°37' E 023°41'612.2
2017-Jun-12 01:31N 59°35' E 023°30'612.2
2017-Jun-12 01:00N 59°33' E 023°18'612.2
2017-Jun-12 00:31N 59°31' E 023°07'612.4
2017-Jun-12 00:01N 59°29' E 022°55'612.6
2017-Jun-11 23:31N 59°27' E 022°43'612.3
2017-Jun-11 23:01N 59°24' E 022°33'612.3
2017-Jun-11 22:31N 59°20' E 022°23'612.5
2017-Jun-11 22:01N 59°16' E 022°14'612.5
2017-Jun-11 21:31N 59°13' E 022°04'612.4
2017-Jun-11 21:00N 59°09' E 021°54'612.3
2017-Jun-11 20:30N 59°05' E 021°45'714.3
2017-Jun-11 20:00N 58°59' E 021°37'510.1
2017-Jun-11 19:31N 58°55' E 021°32'612.5
2017-Jun-11 19:01N 58°49' E 021°25'713.4
2017-Jun-11 18:30N 58°44' E 021°18'714.0
2017-Jun-11 18:00N 58°38' E 021°11'510.3
2017-Jun-11 17:30N 58°34' E 021°05'612.6
2017-Jun-11 17:01N 58°29' E 020°58'612.8
2017-Jun-11 16:30N 58°23' E 020°52'612.7
2017-Jun-11 16:00N 58°18' E 020°45'612.5
2017-Jun-11 15:30N 58°13' E 020°38'612.4
2017-Jun-11 14:59N 58°07' E 020°31'12811.9
2017-Jun-11 04:17N 56°15' E 018°39'412.0
2017-Jun-11 03:58N 56°13' E 018°33'812.1
2017-Jun-11 03:19N 56°09' E 018°21'412.1
2017-Jun-11 03:00N 56°07' E 018°15'612.0
2017-Jun-11 02:30N 56°04' E 018°06'611.9
2017-Jun-11 02:00N 56°01' E 017°57'611.9
2017-Jun-11 01:30N 55°57' E 017°48'612.0
2017-Jun-11 01:00N 55°55' E 017°39'5712.4
2017-Jun-10 20:22N 55°42' E 015°60'512.5
2017-Jun-10 20:00N 55°41' E 015°52'612.6
2017-Jun-10 19:30N 55°39' E 015°41'612.6
2017-Jun-10 19:00N 55°37' E 015°30'612.4
2017-Jun-10 18:31N 55°35' E 015°20'612.4
2017-Jun-10 18:01N 55°32' E 015°10'612.6
2017-Jun-10 17:31N 55°29' E 015°00'612.6
2017-Jun-10 17:01N 55°27' E 014°50'612.4
2017-Jun-10 16:30N 55°24' E 014°40'612.1
2017-Jun-10 16:01N 55°19' E 014°33'612.2
2017-Jun-10 15:31N 55°14' E 014°27'612.3
2017-Jun-10 15:01N 55°10' E 014°20'1212.1
2017-Jun-10 14:00N 55°01' E 014°05'612.5
2017-Jun-10 13:31N 54°59' E 013°55'612.5
2017-Jun-10 13:01N 54°57' E 013°45'712.5
2017-Jun-10 12:29N 54°55' E 013°34'612.4
2017-Jun-10 12:00N 54°53' E 013°24'612.2
2017-Jun-10 11:30N 54°51' E 013°14'1212.1
2017-Jun-10 10:31N 54°47' E 012°55'012.3
2017-Jun-10 10:30N 54°47' E 012°54'611.8
2017-Jun-10 10:00N 54°44' E 012°45'712.0
2017-Jun-10 09:27N 54°42' E 012°34'612.7
2017-Jun-10 08:57N 54°38' E 012°25'2011.3
2017-Jun-10 07:10N 54°24' E 011°60'313.2
2017-Jun-10 06:55N 54°24' E 011°54'612.5
2017-Jun-10 06:27N 54°25' E 011°44'613.0
2017-Jun-10 06:00N 54°28' E 011°35'713.1
2017-Jun-10 05:30N 54°31' E 011°25'713.0
2017-Jun-10 05:00N 54°33' E 011°15'612.8
2017-Jun-10 04:30N 54°37' E 011°06'612.8
2017-Jun-10 04:00N 54°40' E 010°56'510.8
2017-Jun-10 03:30N 54°45' E 010°52'611.6
2017-Jun-10 03:00N 54°51' E 010°52'611.1
2017-Jun-10 02:30N 54°56' E 010°55'510.8
2017-Jun-10 02:00N 55°00' E 011°01'611.4
2017-Jun-10 01:30N 55°06' E 011°02'611.3
2017-Jun-10 01:00N 55°11' E 011°04'5 9.0
2017-Jun-10 00:30N 55°16' E 011°04'4 6.9
2017-Jun-10 00:00N 55°17' E 011°09'510.6
2017-Jun-09 23:30N 55°13' E 011°14'1 0.2
2017-Jun-09 20:56N 55°12' E 011°15'0 0.0
2017-Jun-09 17:17N 55°12' E 011°15'  

Dump ship's entire track history